createdAt,value
2023-05-02T00:00:45.462Z,6.80
2023-05-02T00:03:14.500Z,5.63
2023-05-02T00:05:43.090Z,5.40
2023-05-02T00:08:18.129Z,5.70
2023-05-02T00:10:47.151Z,5.77
2023-05-02T00:13:15.687Z,6.07
2023-05-02T00:15:45.300Z,6.07
2023-05-02T00:18:13.529Z,6.17
2023-05-02T00:20:42.412Z,5.70
2023-05-02T00:23:12.171Z,6.00
2023-05-02T00:25:46.603Z,6.70
2023-05-02T00:28:15.298Z,5.93
2023-05-02T00:30:48.664Z,5.73
2023-05-02T00:33:16.887Z,6.30
2023-05-02T00:35:45.137Z,5.60
2023-05-02T00:38:13.321Z,5.53
2023-05-02T00:40:46.306Z,5.20
2023-05-02T00:43:14.628Z,5.00
2023-05-02T00:45:46.167Z,4.80
2023-05-02T00:48:17.888Z,4.40
2023-05-02T00:50:46.159Z,4.80
2023-05-02T00:53:14.355Z,4.83
2023-05-02T00:55:43.128Z,5.07
2023-05-02T00:58:14.169Z,5.10
2023-05-02T01:00:59.053Z,5.13
2023-05-02T01:03:40.201Z,5.47
2023-05-02T01:06:24.076Z,5.03
2023-05-02T01:09:03.949Z,5.03
2023-05-02T01:11:49.964Z,5.00
2023-05-02T01:14:20.439Z,4.97
2023-05-02T01:16:49.835Z,5.00
2023-05-02T01:19:30.695Z,5.07
2023-05-02T01:22:02.248Z,5.00
2023-05-02T01:24:38.387Z,5.17
2023-05-02T01:27:17.226Z,5.57
2023-05-02T01:29:48.268Z,4.80
2023-05-02T01:32:17.389Z,6.53
2023-05-02T01:34:48.962Z,6.07
2023-05-02T01:37:19.783Z,6.53
2023-05-02T01:39:49.714Z,6.77
2023-05-02T01:42:19.312Z,6.60
2023-05-02T01:44:50.589Z,6.20
2023-05-02T01:47:20.198Z,6.87
2023-05-02T01:49:48.856Z,6.23
2023-05-02T01:52:17.936Z,6.43
2023-05-02T01:54:46.464Z,6.77
2023-05-02T01:57:16.663Z,5.60
2023-05-02T01:59:46.219Z,5.70
2023-05-02T02:02:17.010Z,5.37
2023-05-02T02:04:48.675Z,6.07
2023-05-02T02:07:17.617Z,6.30
2023-05-02T02:09:45.860Z,6.33
2023-05-02T02:12:24.707Z,6.60
2023-05-02T02:15:01.267Z,7.10
2023-05-02T02:17:38.724Z,6.50
2023-05-02T02:20:11.607Z,6.40
2023-05-02T02:22:42.342Z,6.17
2023-05-02T02:25:15.746Z,5.70
2023-05-02T02:27:44.419Z,4.30
2023-05-02T02:30:13.577Z,4.20
2023-05-02T02:32:43.279Z,4.57
2023-05-02T02:35:12.359Z,5.23
2023-05-02T02:37:51.648Z,5.13
2023-05-02T02:40:31.584Z,5.03
2023-05-02T02:43:12.779Z,5.83
2023-05-02T02:45:56.564Z,5.43
2023-05-02T02:48:34.318Z,5.43
2023-05-02T02:51:12.835Z,5.73
2023-05-02T02:53:59.495Z,6.00
2023-05-02T02:56:34.392Z,6.00
2023-05-02T02:59:15.927Z,6.73
2023-05-02T03:01:50.269Z,6.50
2023-05-02T03:04:22.040Z,6.80
2023-05-02T03:06:51.291Z,6.57
2023-05-02T03:09:19.609Z,6.93
2023-05-02T03:11:50.013Z,6.90
2023-05-02T03:14:19.230Z,6.50
2023-05-02T03:16:47.806Z,6.37
2023-05-02T03:19:17.608Z,6.23
2023-05-02T03:21:47.254Z,5.77
2023-05-02T03:24:20.038Z,6.03
2023-05-02T03:26:49.530Z,5.93
2023-05-02T03:29:23.472Z,6.13
2023-05-02T03:31:51.865Z,6.10
2023-05-02T03:34:22.248Z,6.83
2023-05-02T03:36:53.543Z,5.87
2023-05-02T03:39:22.454Z,6.20
2023-05-02T03:41:50.869Z,6.60
2023-05-02T03:44:22.029Z,7.43
2023-05-02T03:46:50.256Z,7.33
2023-05-02T03:49:19.685Z,7.53
2023-05-02T03:51:49.618Z,7.43
2023-05-02T03:54:25.258Z,8.67
2023-05-02T03:56:55.620Z,8.27
2023-05-02T03:59:29.505Z,6.97
2023-05-02T04:01:58.309Z,7.70
2023-05-02T04:04:43.518Z,7.90
2023-05-02T04:07:19.338Z,7.27
2023-05-02T04:09:53.124Z,6.97
2023-05-02T04:12:32.170Z,7.30
2023-05-02T04:15:00.587Z,6.10
2023-05-02T04:17:30.989Z,6.53
2023-05-02T04:20:00.045Z,6.70
2023-05-02T04:22:31.551Z,6.57
2023-05-02T04:25:06.437Z,7.13
2023-05-02T04:27:36.659Z,6.93
2023-05-02T04:30:06.182Z,6.50
2023-05-02T04:32:34.979Z,7.07
2023-05-02T04:35:06.176Z,6.53
2023-05-02T04:37:34.657Z,7.53
2023-05-02T04:40:04.703Z,8.33
2023-05-02T04:42:33.246Z,8.10
2023-05-02T04:45:18.069Z,8.17
2023-05-02T04:47:47.459Z,7.70
2023-05-02T04:50:16.072Z,6.80
2023-05-02T04:52:44.266Z,6.90
2023-05-02T04:55:13.875Z,6.13
2023-05-02T04:57:42.257Z,6.83
2023-05-02T05:00:15.513Z,7.17
2023-05-02T05:02:44.302Z,6.63
2023-05-02T05:05:14.876Z,7.80
2023-05-02T05:07:43.150Z,7.37
2023-05-02T05:10:13.459Z,7.97
2023-05-02T05:12:46.236Z,8.13
2023-05-02T05:15:15.559Z,8.83
2023-05-02T05:17:47.973Z,12.13
2023-05-02T05:20:16.325Z,13.20
2023-05-02T05:22:44.749Z,13.97
2023-05-02T05:25:16.149Z,16.07
2023-05-02T05:27:46.792Z,16.20
2023-05-02T05:30:16.126Z,15.67
2023-05-02T05:32:45.106Z,15.17
2023-05-02T05:35:13.588Z,14.33
2023-05-02T05:37:43.657Z,12.70
2023-05-02T05:40:16.906Z,11.53
2023-05-02T05:42:49.347Z,11.60
2023-05-02T05:45:24.411Z,11.53
2023-05-02T05:47:52.633Z,12.67
2023-05-02T05:50:21.018Z,12.33
2023-05-02T05:52:49.488Z,12.53
2023-05-02T05:55:19.367Z,12.37
2023-05-02T05:57:48.153Z,13.27
2023-05-02T06:00:17.383Z,13.43
2023-05-02T06:02:49.110Z,12.77
2023-05-02T06:08:29.545Z,12.70
2023-05-02T06:10:59.130Z,12.43
2023-05-02T06:13:27.659Z,12.43
2023-05-02T06:15:56.622Z,12.70
2023-05-02T06:18:25.499Z,12.80
2023-05-02T06:20:53.688Z,13.37
2023-05-02T06:23:21.917Z,11.70
2023-05-02T06:25:50.163Z,12.87
2023-05-02T06:28:19.691Z,11.83
2023-05-02T06:30:47.893Z,11.53
2023-05-02T06:33:16.228Z,11.43
2023-05-02T06:35:44.423Z,11.07
2023-05-02T06:38:12.691Z,12.00
2023-05-02T06:40:45.240Z,11.07
2023-05-02T06:43:13.749Z,11.13
2023-05-02T06:45:43.443Z,11.17
2023-05-02T06:48:12.077Z,10.53
2023-05-02T06:50:40.424Z,11.07
2023-05-02T06:53:08.622Z,11.73
2023-05-02T06:55:36.919Z,10.57
2023-05-02T06:58:05.166Z,11.23
2023-05-02T07:00:33.465Z,10.47
2023-05-02T07:03:03.139Z,10.97
2023-05-02T07:05:31.587Z,11.30
2023-05-02T07:07:59.805Z,10.90
2023-05-02T07:10:28.155Z,9.83
2023-05-02T07:12:56.326Z,11.20
2023-05-02T07:15:24.600Z,10.13
2023-05-02T07:17:52.878Z,10.93
2023-05-02T07:20:22.609Z,11.23
2023-05-02T07:22:51.486Z,10.47
2023-05-02T07:25:20.153Z,11.00
2023-05-02T07:27:48.421Z,10.60
2023-05-02T07:30:16.634Z,10.90
2023-05-02T07:32:45.091Z,10.97
2023-05-02T07:35:13.322Z,10.70
2023-05-02T07:37:42.901Z,11.67
2023-05-02T07:40:11.890Z,11.67
2023-05-02T07:42:41.149Z,11.23
2023-05-02T07:45:10.546Z,11.80
2023-05-02T07:47:39.005Z,11.77
2023-05-02T07:50:09.132Z,11.20
2023-05-02T07:52:37.361Z,11.27
2023-05-02T07:55:08.435Z,11.50
2023-05-02T07:57:36.630Z,11.17
2023-05-02T08:00:10.301Z,12.53
2023-05-02T08:02:45.425Z,11.60
2023-05-02T08:05:15.438Z,11.43
2023-05-02T08:07:44.049Z,12.07
2023-05-02T08:10:18.734Z,11.80
2023-05-02T08:12:47.275Z,12.10
2023-05-02T08:15:15.590Z,11.83
2023-05-02T08:17:43.917Z,12.17
2023-05-02T08:20:12.977Z,12.50
2023-05-02T08:22:41.261Z,12.43
2023-05-02T08:25:10.291Z,15.50
2023-05-02T08:27:39.856Z,12.57
2023-05-02T08:30:09.655Z,12.67
2023-05-02T08:32:38.285Z,11.80
2023-05-02T08:35:08.024Z,13.97
2023-05-02T08:37:36.413Z,13.37
2023-05-02T08:40:05.578Z,12.73
2023-05-02T08:42:34.895Z,12.33
2023-05-02T08:45:06.174Z,12.73
2023-05-02T08:47:34.483Z,13.57
2023-05-02T08:50:04.533Z,12.03
2023-05-02T08:52:34.133Z,14.93
2023-05-02T08:55:03.704Z,12.47
2023-05-02T08:57:32.182Z,12.07
2023-05-02T09:00:00.588Z,12.63
2023-05-02T09:02:49.868Z,12.67
2023-05-02T09:05:25.102Z,13.93
2023-05-02T09:07:53.438Z,12.83
2023-05-02T09:10:23.229Z,12.73
2023-05-02T09:12:51.508Z,12.57
2023-05-02T09:15:21.604Z,12.10
2023-05-02T09:17:51.225Z,11.27
2023-05-02T09:20:19.435Z,12.17
2023-05-02T09:22:52.152Z,12.67
2023-05-02T09:25:21.518Z,12.80
2023-05-02T09:27:54.822Z,10.67
2023-05-02T09:30:25.671Z,11.95
2023-05-02T09:32:56.246Z,11.35
2023-05-02T09:35:24.957Z,12.15
2023-05-02T09:37:54.907Z,12.00
2023-05-02T09:40:24.413Z,11.53
2023-05-02T09:42:53.890Z,12.43
2023-05-02T09:45:24.143Z,11.18
2023-05-02T09:47:54.607Z,11.40
2023-05-02T09:50:37.709Z,11.48
2023-05-02T09:53:08.348Z,11.90
2023-05-02T09:55:36.743Z,10.90
2023-05-02T09:58:06.600Z,11.60
2023-05-02T10:00:42.905Z,11.23
2023-05-02T10:06:10.759Z,10.60
2023-05-02T10:08:40.824Z,9.30
2023-05-02T10:11:18.677Z,9.85
2023-05-02T10:13:48.098Z,8.48
2023-05-02T10:16:24.821Z,9.43
2023-05-02T10:19:10.917Z,9.15
2023-05-02T10:21:44.336Z,9.88
2023-05-02T10:24:13.736Z,8.32
2023-05-02T10:26:42.013Z,9.30
2023-05-02T10:29:10.439Z,8.43
2023-05-02T10:31:41.875Z,8.80
2023-05-02T10:34:13.482Z,9.23
2023-05-02T10:36:41.933Z,8.55
2023-05-02T10:39:10.617Z,8.77
2023-05-02T10:41:40.853Z,8.60
2023-05-02T10:44:09.100Z,9.23
2023-05-02T10:46:40.542Z,8.80
2023-05-02T10:49:10.622Z,9.00
2023-05-02T10:51:42.246Z,8.60
2023-05-02T10:54:24.273Z,8.70
2023-05-02T10:57:08.435Z,8.18
2023-05-02T10:59:42.531Z,8.52
2023-05-02T11:02:50.253Z,8.27
2023-05-02T11:05:19.005Z,7.53
2023-05-02T11:07:48.544Z,8.63
2023-05-02T11:10:29.224Z,8.70
2023-05-02T11:13:01.174Z,7.90
2023-05-02T11:16:00.388Z,8.90
2023-05-02T11:18:28.624Z,7.95
2023-05-02T11:21:29.771Z,8.55
2023-05-02T11:24:40.462Z,8.20
2023-05-02T11:27:39.455Z,8.02
2023-05-02T11:30:09.777Z,7.50
2023-05-02T11:33:16.007Z,7.22
2023-05-02T11:35:46.697Z,8.20
2023-05-02T11:38:17.846Z,7.93
2023-05-02T11:41:08.045Z,8.20
2023-05-02T11:43:36.354Z,6.72
2023-05-02T11:46:05.988Z,6.30
2023-05-02T11:48:34.431Z,6.55
2023-05-02T11:51:07.263Z,6.65
2023-05-02T11:53:41.470Z,6.70
2023-05-02T11:56:11.128Z,6.72
2023-05-02T11:58:39.334Z,6.50
2023-05-02T12:01:14.403Z,7.43
2023-05-02T12:03:52.518Z,7.53
2023-05-02T12:06:21.232Z,6.47
2023-05-02T12:08:55.665Z,6.47
2023-05-02T12:11:27.162Z,6.53
2023-05-02T12:13:58.737Z,7.75
2023-05-02T12:16:27.147Z,7.85
2023-05-02T12:18:58.064Z,7.65
2023-05-02T12:21:26.945Z,6.93
2023-05-02T12:23:55.493Z,8.00
2023-05-02T12:26:29.492Z,8.75
2023-05-02T12:28:58.344Z,8.60
2023-05-02T12:31:28.993Z,9.40
2023-05-02T12:33:59.434Z,9.15
2023-05-02T12:36:29.424Z,8.57
2023-05-02T12:39:00.311Z,8.90
2023-05-02T12:41:35.794Z,9.10
2023-05-02T12:44:05.247Z,9.95
2023-05-02T12:46:33.528Z,10.23
2023-05-02T12:49:08.268Z,10.18
2023-05-02T12:51:37.017Z,9.95
2023-05-02T12:54:06.715Z,9.93
2023-05-02T12:56:43.580Z,11.68
2023-05-02T12:59:27.841Z,11.15
2023-05-02T13:01:56.242Z,11.52
2023-05-02T13:04:35.710Z,10.70
2023-05-02T13:07:04.354Z,11.30
2023-05-02T13:09:32.509Z,11.00
2023-05-02T13:12:03.769Z,10.38
2023-05-02T13:14:32.120Z,11.00
2023-05-02T13:17:00.425Z,10.80
2023-05-02T13:19:31.319Z,10.93
2023-05-02T13:21:59.721Z,10.20
2023-05-02T13:24:28.468Z,9.80
2023-05-02T13:26:56.646Z,9.63
2023-05-02T13:29:26.199Z,9.77
2023-05-02T13:31:54.366Z,9.63
2023-05-02T13:34:22.965Z,9.05
2023-05-02T13:36:51.123Z,8.70
2023-05-02T13:39:19.730Z,9.52
2023-05-02T13:41:47.926Z,7.72
2023-05-02T13:44:16.156Z,7.05
2023-05-02T13:46:45.761Z,6.50
2023-05-02T13:49:13.991Z,8.40
2023-05-02T13:51:42.200Z,7.38
2023-05-02T13:54:10.603Z,5.63
2023-05-02T13:56:39.828Z,5.15
2023-05-02T13:59:09.622Z,5.15
2023-05-02T14:01:40.463Z,5.00
2023-05-02T14:04:34.446Z,4.80
2023-05-02T14:07:26.406Z,4.70
2023-05-02T14:09:55.398Z,4.65
2023-05-02T14:12:23.845Z,4.75
2023-05-02T14:14:52.075Z,4.88
2023-05-02T14:17:20.254Z,5.32
2023-05-02T14:19:49.750Z,5.32
2023-05-02T14:22:18.338Z,4.78
2023-05-02T14:24:46.682Z,5.07
2023-05-02T14:27:18.316Z,5.28
2023-05-02T14:29:46.912Z,5.60
2023-05-02T14:32:15.421Z,5.00
2023-05-02T14:34:43.611Z,4.63
2023-05-02T14:37:13.149Z,4.82
2023-05-02T14:39:42.556Z,4.50
2023-05-02T14:42:10.767Z,4.22
2023-05-02T14:44:38.940Z,3.70
2023-05-02T14:47:07.192Z,3.90
2023-05-02T14:49:35.428Z,3.80
2023-05-02T14:52:03.624Z,4.38
2023-05-02T14:54:33.191Z,3.88
2023-05-02T14:57:02.229Z,4.10
2023-05-02T14:59:31.045Z,4.00
2023-05-02T15:01:59.413Z,3.72
2023-05-02T15:04:28.314Z,4.07
2023-05-02T15:06:58.333Z,3.83
2023-05-02T15:09:27.021Z,4.07
2023-05-02T15:11:56.797Z,3.80
2023-05-02T15:14:25.032Z,2.63
2023-05-02T15:16:53.445Z,3.10
2023-05-02T15:19:22.579Z,3.08
2023-05-02T15:21:53.122Z,3.30
2023-05-02T15:24:21.299Z,3.15
2023-05-02T15:26:49.467Z,3.00
2023-05-02T15:29:19.289Z,2.80
2023-05-02T15:31:47.514Z,3.13
2023-05-02T15:34:16.332Z,2.70
2023-05-02T15:36:44.508Z,1.92
2023-05-02T15:39:12.687Z,2.55
2023-05-02T15:41:41.956Z,2.70
2023-05-02T15:44:10.196Z,2.70
2023-05-02T15:46:40.952Z,2.30
2023-05-02T15:49:09.269Z,2.88
2023-05-02T15:51:37.487Z,3.95
2023-05-02T15:54:06.880Z,3.75
2023-05-02T15:56:35.155Z,4.57
2023-05-02T15:59:03.338Z,5.20
2023-05-02T16:01:31.842Z,12.65
2023-05-02T16:04:01.624Z,14.02
2023-05-02T16:06:30.630Z,23.00
2023-05-02T16:08:58.858Z,24.75
2023-05-02T16:11:28.561Z,13.13
2023-05-02T16:13:57.819Z,9.07
2023-05-02T16:16:26.122Z,7.97
2023-05-02T16:18:54.347Z,6.35
2023-05-02T16:21:23.905Z,6.63
2023-05-02T16:23:52.322Z,5.57
2023-05-02T16:26:21.505Z,6.35
2023-05-02T16:28:49.722Z,6.43
2023-05-02T16:31:17.982Z,4.72
2023-05-02T16:33:46.679Z,5.15
2023-05-02T16:36:15.734Z,5.43
2023-05-02T16:38:45.507Z,7.85
2023-05-02T16:41:13.953Z,5.45
2023-05-02T16:43:42.196Z,6.00
2023-05-02T16:46:10.453Z,8.15
2023-05-02T16:48:38.605Z,6.80
2023-05-02T16:51:07.679Z,5.07
2023-05-02T16:53:35.848Z,5.90
2023-05-02T16:56:06.040Z,6.70
2023-05-02T16:58:34.219Z,6.70
2023-05-02T17:01:02.886Z,13.93
2023-05-02T17:03:31.162Z,17.60
2023-05-02T17:06:03.038Z,14.63
2023-05-02T17:08:32.083Z,15.38
2023-05-02T17:11:00.544Z,8.20
2023-05-02T17:13:30.432Z,5.43
2023-05-02T17:15:59.448Z,7.22
2023-05-02T17:18:27.997Z,5.90
2023-05-02T17:20:56.560Z,7.38
2023-05-02T17:23:24.931Z,9.52
2023-05-02T17:25:53.389Z,5.32
2023-05-02T17:28:21.679Z,4.88
2023-05-02T17:30:54.644Z,4.20
2023-05-02T17:33:23.385Z,4.55
2023-05-02T17:35:51.726Z,4.22
2023-05-02T17:38:20.477Z,3.97
2023-05-02T17:40:48.741Z,6.32
2023-05-02T17:43:16.940Z,19.15
2023-05-02T17:45:45.439Z,12.82
2023-05-02T17:48:15.194Z,9.52
2023-05-02T17:50:44.197Z,10.07
2023-05-02T17:53:12.600Z,7.82
2023-05-02T17:55:40.866Z,6.20
2023-05-02T17:58:09.201Z,5.43
2023-05-02T18:00:38.138Z,5.18
2023-05-02T18:03:30.900Z,4.50
2023-05-02T18:06:00.630Z,4.43
2023-05-02T18:08:31.148Z,4.85
2023-05-02T18:11:03.600Z,5.80
2023-05-02T18:13:32.487Z,4.60
2023-05-02T18:16:01.946Z,4.47
2023-05-02T18:18:30.299Z,3.35
2023-05-02T18:20:59.992Z,4.43
2023-05-02T18:23:28.168Z,5.20
2023-05-02T18:25:56.751Z,4.18
2023-05-02T18:28:25.105Z,3.95
2023-05-02T18:30:53.316Z,3.80
2023-05-02T18:33:21.483Z,4.82
2023-05-02T18:35:50.182Z,4.63
2023-05-02T18:38:20.260Z,3.95
2023-05-02T18:40:48.625Z,3.58
2023-05-02T18:43:16.793Z,4.45
2023-05-02T18:45:45.111Z,3.90
2023-05-02T18:48:13.368Z,4.32
2023-05-02T18:50:41.667Z,25.30
2023-05-02T18:53:09.942Z,4.90
2023-05-02T18:55:39.487Z,12.88
2023-05-02T18:58:07.684Z,6.18
2023-05-02T19:00:37.226Z,16.92
2023-05-02T19:03:05.717Z,6.25
2023-05-02T19:05:34.791Z,5.32
2023-05-02T19:08:04.528Z,6.05
2023-05-02T19:10:32.998Z,5.82
2023-05-02T19:13:02.949Z,5.03
2023-05-02T19:15:31.256Z,4.63
2023-05-02T19:17:59.451Z,3.63
2023-05-02T19:20:30.132Z,7.07
2023-05-02T19:23:17.741Z,8.82
2023-05-02T19:25:47.169Z,12.52
2023-05-02T19:28:17.259Z,8.15
2023-05-02T19:30:46.129Z,21.05
2023-05-02T19:33:14.345Z,10.25
2023-05-02T19:35:42.542Z,17.10
2023-05-02T19:38:10.698Z,7.55
2023-05-02T19:40:38.888Z,8.63
2023-05-02T19:43:07.116Z,4.40
2023-05-02T19:45:36.739Z,6.50
2023-05-02T19:48:05.937Z,4.13
2023-05-02T19:50:34.285Z,5.47
2023-05-02T19:53:04.288Z,5.10
2023-05-02T19:55:58.693Z,4.00
2023-05-02T19:58:27.234Z,3.40
2023-05-02T20:00:57.087Z,4.87
2023-05-02T20:03:25.621Z,5.00
2023-05-02T20:05:57.243Z,3.50
2023-05-02T20:08:30.380Z,4.10
2023-05-02T20:10:58.571Z,4.33
2023-05-02T20:13:31.463Z,3.10
2023-05-02T20:16:01.088Z,3.80
2023-05-02T20:18:29.305Z,4.40
2023-05-02T20:20:57.763Z,8.80
2023-05-02T20:23:26.613Z,6.00
2023-05-02T20:25:54.839Z,4.50
2023-05-02T20:28:23.063Z,2.80
2023-05-02T20:30:51.210Z,4.27
2023-05-02T20:33:23.110Z,5.30
2023-05-02T20:35:56.570Z,4.40
2023-05-02T20:38:24.772Z,4.80
2023-05-02T20:40:53.109Z,4.07
2023-05-02T20:43:22.881Z,4.70
2023-05-02T20:45:51.194Z,4.03
2023-05-02T20:48:20.799Z,5.20
2023-05-02T20:50:55.439Z,5.33
2023-05-02T20:53:24.112Z,3.90
2023-05-02T20:55:52.441Z,4.03
2023-05-02T20:58:20.666Z,4.73
2023-05-02T21:00:52.454Z,5.17
2023-05-02T21:03:22.750Z,10.87
2023-05-02T21:05:54.958Z,5.80
2023-05-02T21:08:25.045Z,3.90
2023-05-02T21:10:54.476Z,3.20
2023-05-02T21:13:23.146Z,2.70
2023-05-02T21:15:51.483Z,2.53
2023-05-02T21:18:22.289Z,2.67
2023-05-02T21:20:50.627Z,2.53
2023-05-02T21:23:18.901Z,2.77
2023-05-02T21:25:47.141Z,2.50
2023-05-02T21:28:15.493Z,2.70
2023-05-02T21:30:43.678Z,2.90
2023-05-02T21:33:12.575Z,2.63
2023-05-02T21:35:42.194Z,2.50
2023-05-02T21:38:10.391Z,2.63
2023-05-02T21:40:38.659Z,2.73
2023-05-02T21:43:07.128Z,2.80
2023-05-02T21:45:35.384Z,2.80
2023-05-02T21:48:03.809Z,3.17
2023-05-02T21:50:33.554Z,3.57
2023-05-02T21:53:03.278Z,3.07
2023-05-02T21:55:31.478Z,3.47
2023-05-02T21:57:59.647Z,3.20
2023-05-02T22:00:28.071Z,2.93
2023-05-02T22:02:57.792Z,3.30
2023-05-02T22:05:27.235Z,2.87
2023-05-02T22:07:56.233Z,3.10
2023-05-02T22:10:51.628Z,3.30
2023-05-02T22:13:19.989Z,3.57
2023-05-02T22:15:50.850Z,3.30
2023-05-02T22:18:19.480Z,3.63
2023-05-02T22:20:48.185Z,4.77
2023-05-02T22:23:16.453Z,10.63
2023-05-02T22:25:46.338Z,8.20
2023-05-02T22:28:15.915Z,14.53
2023-05-02T22:30:44.151Z,13.57
2023-05-02T22:33:13.989Z,7.20
2023-05-02T22:35:42.368Z,13.40
2023-05-02T22:38:10.998Z,11.87
2023-05-02T22:40:39.188Z,12.73
2023-05-02T22:43:08.181Z,8.03
2023-05-02T22:45:38.358Z,7.73
2023-05-02T22:48:07.806Z,58.20
2023-05-02T22:50:36.106Z,33.60
2023-05-02T22:53:04.656Z,30.57
2023-05-02T22:55:32.858Z,18.93
2023-05-02T22:58:01.068Z,19.43
2023-05-02T23:00:29.306Z,14.10
2023-05-02T23:02:59.114Z,10.23
2023-05-02T23:05:27.455Z,9.63
2023-05-02T23:07:55.689Z,12.00
2023-05-02T23:10:23.900Z,6.10
2023-05-02T23:12:52.102Z,4.30
2023-05-02T23:15:20.826Z,4.27
2023-05-02T23:17:49.294Z,4.70
2023-05-02T23:20:20.412Z,4.43
2023-05-02T23:22:48.709Z,4.20
2023-05-02T23:25:17.012Z,5.07
2023-05-02T23:27:45.693Z,4.97
2023-05-02T23:30:14.258Z,5.67
2023-05-02T23:32:42.713Z,6.57
2023-05-02T23:35:12.348Z,6.20
2023-05-02T23:37:42.773Z,6.23
2023-05-02T23:40:11.606Z,6.53
2023-05-02T23:42:40.456Z,8.87
2023-05-02T23:45:10.224Z,7.70
2023-05-02T23:47:38.963Z,7.03
2023-05-02T23:50:09.768Z,14.27
2023-05-02T23:52:38.087Z,9.07
2023-05-02T23:55:10.549Z,8.10
2023-05-02T23:57:39.170Z,8.83
